Time;durP1;ratioP1;P1;durP2;ratioP2;P2;SDS_P1;SDS_P2;PMS_P1;PMS_P2;Temp;Humidity;BMP_temperature;BMP_pressure;BME280_temperature;BME280_humidity;BME280_pressure;Samples;Min_cycle;Max_cycle;Signal;HPM_P1;HPM_P2
2024/02/27 09:49:52;;;;;;;;;;;;;;;12.93;92.58;100136.59;5054990;28;703;-59
2024/02/27 09:52:19;;;;;;;;;;;;;;;13.14;89.74;100138.38;5054318;28;943;-59
2024/02/27 09:54:45;;;;;;;;;;;;;;;13.20;92.29;100128.41;5054230;28;882;-59
2024/02/27 09:57:10;;;;;;;;;;;;;;;13.20;92.97;100125.66;5054009;28;1973;-59
2024/02/27 12:35:43;;;;;;;;;;;;;;;16.77;71.48;100074.34;5068012;27;2224574;-57
2024/02/27 12:38:09;;;;;;;;;;;;;;;16.74;69.48;100076.00;5130497;28;829;-57
2024/02/27 12:40:36;;;;;;;;;;;;;;;16.42;70.02;100069.22;5130274;28;1332;-57
2024/02/27 12:43:03;;;;;;;;;;;;;;;16.56;71.44;100075.66;5130400;28;1228;-58
2024/02/27 12:45:32;;;;;;;;;;;;;;;16.44;71.85;100082.75;5130112;28;1294;-57
2024/02/27 12:47:59;;;;;;;;;;;;;;;16.48;71.03;100086.25;5129928;28;987;-57
2024/02/27 12:50:27;;;;;;;;;;;;;;;16.67;72.17;100082.56;5129995;28;963;-58
2024/02/27 12:52:56;;;;;;;;;;;;;;;16.64;71.33;100088.22;5129811;28;877;-57
2024/02/27 12:55:23;;;;;;;;;;;;;;;16.72;70.40;100089.63;5129658;28;1913;-58
2024/02/27 12:57:53;;;;;;;;;;;;;;;16.51;70.34;100085.34;5129829;28;873;-57
2024/02/27 13:00:22;;;;;;;;;;;;;;;16.56;71.93;100098.00;5129682;28;896;-57
2024/02/27 13:02:55;;;;;;;;;;;;;;;16.56;71.29;100096.00;5129802;28;853;-58
2024/02/27 13:05:23;;;;;;;;;;;;;;;16.42;69.16;100099.91;5129470;28;897;-58
2024/02/27 13:07:50;;;;;;;;;;;;;;;16.00;73.19;100104.47;5129654;28;817;-58
2024/02/27 13:10:17;;;;;;;;;;;;;;;16.27;71.77;100090.31;5129517;28;794;-57
2024/02/27 13:12:44;;;;;;;;;;;;;;;16.39;71.21;100086.06;5129540;28;853;-57
2024/02/27 13:15:10;;;;;;;;;;;;;;;16.76;70.97;100095.91;5129247;28;1886;-57
2024/02/27 13:17:37;;;;;;;;;;;;;;;16.62;68.50;100090.66;5129323;28;893;-57
2024/02/27 13:20:04;;;;;;;;;;;;;;;16.69;68.90;100082.91;5129306;28;832;-58
2024/02/27 13:22:30;;;;;;;;;;;;;;;16.58;69.87;100082.41;5129222;28;933;-58
2024/02/27 13:24:57;;;;;;;;;;;;;;;16.32;69.82;100078.63;5129169;28;1215;-60
2024/02/27 13:27:24;;;;;;;;;;;;;;;15.94;73.56;100076.34;5129217;28;909;-60
2024/02/27 13:29:50;;;;;;;;;;;;;;;16.05;72.37;100074.09;5129069;28;873;-61
2024/02/27 13:32:17;;;;;;;;;;;;;;;15.80;73.79;100079.44;5129056;28;812;-61
2024/02/27 13:34:43;;;;;;;;;;;;;;;15.86;74.08;100081.28;5128992;28;1910;-60
2024/02/27 13:37:10;;;;;;;;;;;;;;;16.30;71.57;100079.09;5129093;28;846;-60
2024/02/27 13:39:35;;;;;;;;;;;;;;;16.53;70.70;100080.13;5128951;28;935;-60
2024/02/27 13:42:03;;;;;;;;;;;;;;;16.45;71.08;100090.69;5128979;28;813;-61
2024/02/27 13:44:29;;;;;;;;;;;;;;;16.58;72.23;100090.78;5128917;28;828;-60
2024/02/27 13:46:56;;;;;;;;;;;;;;;16.59;70.02;100091.56;5116269;28;861;-61
2024/02/27 13:49:23;;;;;;;;;;;;;;;16.30;70.57;100081.06;5096715;28;1353;-61
2024/02/27 13:51:50;;;;;;;;;;;;;;;16.17;71.90;100080.97;5115155;28;869;-61
2024/02/27 13:54:16;;;;;;;;;;;;;;;16.27;71.26;100077.16;5114982;28;1913;-61
2024/02/27 13:56:43;;;;;;;;;;;;;;;16.31;70.76;100085.44;5114937;28;912;-62
2024/02/27 13:59:10;;;;;;;;;;;;;;;16.15;71.46;100083.41;5115196;28;873;-61
2024/02/27 14:01:37;;;;;;;;;;;;;;;16.28;70.50;100080.72;5114885;28;857;-60
2024/02/27 14:04:04;;;;;;;;;;;;;;;16.46;69.59;100071.94;5114880;28;837;-60
2024/02/27 14:06:31;;;;;;;;;;;;;;;16.14;70.07;100079.06;5114812;28;821;-61
2024/02/27 14:08:58;;;;;;;;;;;;;;;15.86;71.04;100088.88;5114903;28;826;-60
2024/02/27 14:11:25;;;;;;;;;;;;;;;15.62;72.80;100082.56;5096293;28;936;-61
2024/02/27 14:13:52;;;;;;;;;;;;;;;15.59;74.39;100081.44;5114602;28;1885;-62
2024/02/27 14:16:19;;;;;;;;;;;;;;;15.57;73.90;100077.50;5114902;28;786;-61
2024/02/27 14:18:45;;;;;;;;;;;;;;;15.24;74.83;100083.75;5114596;28;1340;-61
2024/02/27 14:21:14;;;;;;;;;;;;;;;15.04;76.38;100080.13;5114549;28;817;-61
2024/02/27 14:23:41;;;;;;;;;;;;;;;14.99;78.42;100086.22;5114503;28;843;-60
2024/02/27 14:26:07;;;;;;;;;;;;;;;15.10;76.11;100079.22;5114378;28;947;-60
2024/02/27 14:28:34;;;;;;;;;;;;;;;14.68;77.65;100076.03;5096083;28;1306;-61
2024/02/27 14:30:59;;;;;;;;;;;;;;;14.50;79.22;100076.28;5114400;28;880;-61
2024/02/27 14:33:25;;;;;;;;;;;;;;;14.49;79.01;100079.50;5114146;28;1961;-61
2024/02/27 14:35:52;;;;;;;;;;;;;;;14.18;80.55;100070.44;5113982;28;1230;-62
2024/02/27 14:38:18;;;;;;;;;;;;;;;13.93;82.11;100074.38;5114278;28;818;-61
2024/02/27 14:40:44;;;;;;;;;;;;;;;13.88;83.20;100072.06;5114304;28;857;-61
2024/02/27 14:43:11;;;;;;;;;;;;;;;13.90;83.25;100078.00;5114671;28;845;-60
2024/02/27 14:45:37;;;;;;;;;;;;;;;13.62;84.15;100074.41;5095808;28;834;-60
2024/02/27 14:48:04;;;;;;;;;;;;;;;13.61;84.75;100081.19;5114093;28;821;-60
2024/02/27 14:50:31;;;;;;;;;;;;;;;13.56;85.23;100089.97;5114033;28;849;-61
2024/02/27 14:52:59;;;;;;;;;;;;;;;13.42;86.37;100092.91;5114017;28;888;-62
2024/02/27 14:55:25;;;;;;;;;;;;;;;13.31;87.52;100093.03;5113899;28;1969;-61
2024/02/27 14:57:51;;;;;;;;;;;;;;;13.00;89.30;100089.38;5112755;28;819;-60
2024/02/27 15:00:18;;;;;;;;;;;;;;;12.68;91.70;100098.78;5113797;28;880;-60
2024/02/27 15:02:45;;;;;;;;;;;;;;;12.50;91.83;100106.47;5113741;28;798;-62
2024/02/27 15:05:12;;;;;;;;;;;;;;;12.29;92.86;100097.13;5113627;28;810;-62
2024/02/27 15:07:39;;;;;;;;;;;;;;;12.14;94.78;100101.97;5113631;28;829;-60
2024/02/27 15:10:06;;;;;;;;;;;;;;;11.94;97.54;100114.75;5113679;28;821;-62
2024/02/27 15:12:32;;;;;;;;;;;;;;;11.89;99.65;100112.44;5113523;28;897;-62
2024/02/27 15:14:59;;;;;;;;;;;;;;;11.81;100.00;100117.16;5113561;28;1885;-61
2024/02/27 15:17:26;;;;;;;;;;;;;;;11.61;100.00;100114.09;5113475;28;950;-62
2024/02/27 15:19:53;;;;;;;;;;;;;;;11.33;100.00;100104.72;5113680;28;864;-63
2024/02/27 15:22:19;;;;;;;;;;;;;;;10.97;100.00;100104.81;5113590;28;972;-63
2024/02/27 15:24:45;;;;;;;;;;;;;;;10.62;100.00;100111.13;5113480;28;897;-63
2024/02/27 15:27:13;;;;;;;;;;;;;;;10.33;100.00;100111.13;5113509;28;1208;-63
2024/02/27 15:29:39;;;;;;;;;;;;;;;10.08;100.00;100113.03;5113326;28;853;-63
2024/02/27 15:32:07;;;;;;;;;;;;;;;9.97;100.00;100124.06;5113263;28;1272;-62
2024/02/27 15:34:33;;;;;;;;;;;;;;;9.78;100.00;100125.97;5113575;28;2319;-63
2024/02/27 15:37:00;;;;;;;;;;;;;;;9.56;100.00;100127.09;5112972;28;1254;-63
2024/02/27 15:39:27;;;;;;;;;;;;;;;9.32;100.00;100136.81;5113182;28;905;-62
2024/02/27 15:41:55;;;;;;;;;;;;;;;9.07;100.00;100147.66;5113012;28;1215;-62
2024/02/27 15:44:22;;;;;;;;;;;;;;;8.79;100.00;100146.31;5113331;28;826;-62
2024/02/27 15:46:48;;;;;;;;;;;;;;;8.58;100.00;100150.47;5113300;28;798;-61
2024/02/27 15:49:15;;;;;;;;;;;;;;;8.33;100.00;100152.19;5113016;28;845;-62
2024/02/27 15:51:48;;;;;;;;;;;;;;;8.09;100.00;100161.78;5113113;28;1172;-61
2024/02/27 15:54:17;;;;;;;;;;;;;;;7.87;100.00;100153.28;5112667;28;1909;-62
2024/02/27 15:56:46;;;;;;;;;;;;;;;7.66;100.00;100151.06;5112794;28;877;-62
2024/02/27 15:59:12;;;;;;;;;;;;;;;7.48;100.00;100161.03;5112870;28;897;-61
2024/02/27 16:01:39;;;;;;;;;;;;;;;7.31;100.00;100157.66;5112900;28;857;-61
2024/02/27 16:04:25;;;;;;;;;;;;;;;7.19;100.00;100162.56;5112603;28;904;-60
2024/02/27 16:06:56;;;;;;;;;;;;;;;7.07;100.00;100174.59;5112631;28;947;-61
2024/02/27 16:09:22;;;;;;;;;;;;;;;7.00;100.00;100179.97;5112240;28;825;-61
2024/02/27 16:11:48;;;;;;;;;;;;;;;6.88;100.00;100186.47;5112457;28;857;-60
2024/02/27 16:14:14;;;;;;;;;;;;;;;6.78;100.00;100185.13;5112344;28;1889;-61
2024/02/27 16:16:41;;;;;;;;;;;;;;;6.65;100.00;100184.50;5112351;28;893;-60
2024/02/27 16:19:07;;;;;;;;;;;;;;;6.53;100.00;100184.72;5112503;28;904;-60
2024/02/27 16:21:43;;;;;;;;;;;;;;;6.48;100.00;100191.28;5112374;28;835;-60
2024/02/27 16:24:10;;;;;;;;;;;;;;;6.49;100.00;100192.88;5112325;28;826;-61
2024/02/27 16:26:40;;;;;;;;;;;;;;;6.55;100.00;100185.13;5094063;28;1355;-60
2024/02/27 16:29:06;;;;;;;;;;;;;;;6.46;100.00;100187.31;5112248;28;893;-61
2024/02/27 16:31:33;;;;;;;;;;;;;;;6.30;100.00;100187.44;5112555;28;876;-61
2024/02/27 16:34:00;;;;;;;;;;;;;;;6.05;100.00;100195.97;5112249;28;1952;-61
2024/02/27 16:36:27;;;;;;;;;;;;;;;5.92;100.00;100191.75;5090224;28;1288;-61
2024/02/27 16:38:53;;;;;;;;;;;;;;;5.77;100.00;100187.94;5091913;28;864;-61
2024/02/27 16:41:20;;;;;;;;;;;;;;;5.63;100.00;100199.41;5091785;28;856;-60
2024/02/27 16:43:47;;;;;;;;;;;;;;;5.53;100.00;100198.03;5091896;28;904;-60
2024/02/27 16:46:13;;;;;;;;;;;;;;;5.51;100.00;100203.06;5091771;28;837;-60
2024/02/27 16:48:40;;;;;;;;;;;;;;;5.50;100.00;100209.72;5091826;28;881;-60
2024/02/27 16:51:07;;;;;;;;;;;;;;;5.46;100.00;100203.34;5091708;28;884;-60
2024/02/27 16:53:33;;;;;;;;;;;;;;;5.39;100.00;100208.66;5091588;28;1906;-60
2024/02/27 16:56:00;;;;;;;;;;;;;;;5.29;100.00;100207.28;5091771;28;810;-60
2024/02/27 16:58:26;;;;;;;;;;;;;;;5.27;100.00;100208.78;5091641;28;912;-60
2024/02/27 17:00:53;;;;;;;;;;;;;;;5.23;100.00;100213.41;5090345;28;1177;-60
2024/02/27 17:03:19;;;;;;;;;;;;;;;5.05;100.00;100227.44;5090265;28;852;-59
